Time;durP1;ratioP1;P1;durP2;ratioP2;P2;SDS_P1;SDS_P2;PMS_P1;PMS_P2;Temp;Humidity;BMP_temperature;BMP_pressure;BME280_temperature;BME280_humidity;BME280_pressure;Samples;Min_cycle;Max_cycle;Signal;HPM_P1;HPM_P2
2024/03/13 00:01:08;;;;;;;58.13;23.38;;;7.60;83.30;;;;;;9178217;19;20479;-65
2024/03/13 00:04:14;;;;;;;54.25;23.70;;;7.60;82.70;;;;;;9177284;19;20017;-65
2024/03/13 00:07:22;;;;;;;56.30;22.85;;;7.40;82.70;;;;;;9177988;19;20478;-65
2024/03/13 00:10:31;;;;;;;57.47;22.73;;;7.40;82.80;;;;;;9178957;19;20074;-65
2024/03/13 00:13:39;;;;;;;56.58;23.02;;;7.40;82.90;;;;;;9177567;19;20023;-65
2024/03/13 00:16:45;;;;;;;52.90;21.50;;;7.50;83.20;;;;;;9174907;19;20101;-65
2024/03/13 00:19:54;;;;;;;57.85;22.23;;;7.50;85.20;;;;;;9177015;19;20022;-65
2024/03/13 00:23:01;;;;;;;44.20;20.63;;;7.60;84.20;;;;;;9177254;19;20022;-64
2024/03/13 00:26:12;;;;;;;53.50;21.88;;;7.70;83.70;;;;;;9176463;19;20613;-66
2024/03/13 00:29:18;;;;;;;53.65;21.02;;;7.50;83.50;;;;;;9177663;19;20016;-64
2024/03/13 00:32:26;;;;;;;50.10;22.15;;;7.60;84.40;;;;;;9176752;19;20356;-65
2024/03/13 00:35:31;;;;;;;53.05;21.08;;;7.60;84.90;;;;;;9175469;19;20495;-65
2024/03/13 00:38:39;;;;;;;50.50;22.55;;;7.70;85.00;;;;;;9173517;19;20033;-66
2024/03/13 00:41:47;;;;;;;54.30;21.70;;;7.70;84.10;;;;;;9176696;19;20010;-65
2024/03/13 00:44:55;;;;;;;53.10;21.30;;;7.70;84.20;;;;;;9176309;19;20011;-65
2024/03/13 00:48:00;;;;;;;52.88;21.02;;;7.80;85.00;;;;;;9176106;19;20018;-64
2024/03/13 00:51:09;;;;;;;50.97;21.13;;;7.80;84.90;;;;;;9176680;19;20018;-66
2024/03/13 00:54:14;;;;;;;51.45;20.70;;;7.80;83.80;;;;;;9174719;19;20063;-65
2024/03/13 00:57:24;;;;;;;49.50;21.17;;;7.80;83.40;;;;;;9170078;19;20014;-64
2024/03/13 01:00:35;;;;;;;50.55;22.52;;;7.80;84.20;;;;;;9175915;19;20086;-65
2024/03/13 01:03:42;;;;;;;46.95;20.85;;;7.80;83.90;;;;;;9175623;19;20017;-65
2024/03/13 01:06:48;;;;;;;48.85;20.10;;;7.80;83.40;;;;;;9174451;19;20025;-65
2024/03/13 01:09:55;;;;;;;49.08;20.00;;;7.90;83.40;;;;;;9175679;19;20018;-65
2024/03/13 01:13:05;;;;;;;49.85;19.60;;;7.90;83.50;;;;;;9174368;19;20363;-66
2024/03/13 01:16:12;;;;;;;48.78;19.80;;;7.90;83.50;;;;;;9174846;19;20045;-65
2024/03/13 01:19:19;;;;;;;49.67;19.25;;;8.00;83.50;;;;;;9174866;19;20013;-65
2024/03/13 01:22:28;;;;;;;47.40;20.45;;;8.00;83.50;;;;;;9174092;19;20018;-66
2024/03/13 01:25:34;;;;;;;45.53;18.80;;;8.00;83.50;;;;;;9174701;19;20039;-67
2024/03/13 01:28:44;;;;;;;51.78;19.83;;;8.00;83.50;;;;;;9174041;19;20025;-67
2024/03/13 01:31:50;;;;;;;42.85;17.00;;;8.10;83.60;;;;;;9175594;19;20348;-65
2024/03/13 01:34:57;;;;;;;46.17;18.13;;;8.10;83.60;;;;;;9174552;19;20010;-66
2024/03/13 01:38:02;;;;;;;43.10;17.52;;;8.10;83.60;;;;;;9171240;19;20558;-66
2024/03/13 01:58:19;;;;;;;44.47;16.95;;;8.50;89.10;;;;;;9174953;19;20479;-68
2024/03/13 02:04:49;;;;;;;40.85;18.25;;;8.60;88.20;;;;;;9183765;19;20471;-65
2024/03/13 02:07:59;;;;;;;38.75;16.60;;;8.50;85.80;;;;;;9182851;19;20038;-66
2024/03/13 02:11:13;;;;;;;41.60;18.00;;;8.50;86.20;;;;;;9182009;19;20013;-65
2024/03/13 02:14:21;;;;;;;38.75;16.60;;;8.60;88.00;;;;;;9182301;19;20129;-65
2024/03/13 02:17:29;;;;;;;35.97;16.58;;;8.50;87.20;;;;;;9181208;19;20475;-64
2024/03/13 02:20:37;;;;;;;45.33;18.08;;;8.60;89.30;;;;;;9178042;19;20021;-64
2024/03/13 02:23:45;;;;;;;43.53;18.50;;;8.70;90.50;;;;;;9182583;19;20389;-64
2024/03/13 02:26:53;;;;;;;43.30;18.48;;;8.60;86.30;;;;;;9182233;19;20021;-65
2024/03/13 02:29:59;;;;;;;47.72;18.73;;;8.60;85.20;;;;;;9182149;19;20010;-65
2024/03/13 02:33:06;;;;;;;45.38;18.02;;;8.60;85.50;;;;;;9182283;19;20015;-65
2024/03/13 02:36:12;;;;;;;40.50;17.33;;;8.70;86.60;;;;;;9181897;19;20070;-64
2024/03/13 02:39:24;;;;;;;41.45;17.58;;;8.70;89.70;;;;;;9178956;19;20018;-65
2024/03/13 02:42:29;;;;;;;43.90;17.15;;;8.80;87.10;;;;;;9182676;19;20073;-65
2024/03/13 02:45:37;;;;;;;40.00;17.17;;;8.60;83.90;;;;;;9183130;19;20023;-65
2024/03/13 02:48:43;;;;;;;37.00;15.48;;;8.60;83.90;;;;;;9183917;19;20003;-65
2024/03/13 02:51:50;;;;;;;44.72;16.52;;;8.60;83.90;;;;;;9182475;19;20015;-65
2024/03/13 02:55:16;;;;;;;40.20;16.42;;;8.70;83.90;;;;;;9181383;19;20376;-65
2024/03/13 02:58:24;;;;;;;41.00;17.13;;;8.70;83.90;;;;;;9174809;19;20022;-64
2024/03/13 03:01:29;;;;;;;38.38;15.82;;;8.70;83.90;;;;;;9178942;19;20018;-65
2024/03/13 03:04:37;;;;;;;37.55;16.23;;;8.70;83.90;;;;;;9180861;19;20472;-64
2024/03/13 03:07:43;;;;;;;39.58;16.08;;;8.70;84.00;;;;;;9180091;19;20498;-65
2024/03/13 03:10:53;;;;;;;41.92;16.60;;;8.80;84.00;;;;;;9178480;19;20014;-66
2024/03/13 03:13:59;;;;;;;38.22;16.55;;;8.80;84.00;;;;;;9180614;19;20022;-65
2024/03/13 03:17:06;;;;;;;36.15;15.82;;;8.80;83.90;;;;;;9176642;19;20014;-66
2024/03/13 03:20:12;;;;;;;38.88;16.00;;;8.80;84.00;;;;;;9179624;19;20021;-65
2024/03/13 03:23:20;;;;;;;35.38;14.40;;;8.80;84.30;;;;;;9178180;19;20018;-65
2024/03/13 03:26:29;;;;;;;43.25;16.38;;;9.10;90.40;;;;;;9179679;19;20007;-65
2024/03/13 03:29:36;;;;;;;42.72;16.13;;;9.20;90.50;;;;;;9179542;19;20022;-65
2024/03/13 03:32:42;;;;;;;41.22;15.30;;;9.10;91.60;;;;;;9179139;19;20011;-65
2024/03/13 03:35:50;;;;;;;35.78;15.23;;;9.10;92.60;;;;;;9179556;19;20018;-67
2024/03/13 03:38:55;;;;;;;36.90;15.38;;;9.10;88.80;;;;;;9177178;19;20011;-65
2024/03/13 03:42:06;;;;;;;34.80;15.90;;;8.90;84.20;;;;;;9179858;19;20478;-66
2024/03/13 03:45:12;;;;;;;38.42;15.88;;;8.90;84.10;;;;;;9177806;19;20026;-65
2024/03/13 03:48:21;;;;;;;36.85;16.10;;;8.90;84.10;;;;;;9178638;19;20022;-65
2024/03/13 03:51:27;;;;;;;35.13;16.30;;;8.90;84.10;;;;;;9179523;19;20043;-66
2024/03/13 03:54:34;;;;;;;35.70;15.23;;;9.00;84.10;;;;;;9178515;19;20057;-67
2024/03/13 03:57:43;;;;;;;32.55;16.25;;;9.00;84.10;;;;;;9173473;19;20011;-68
2024/03/13 04:00:52;;;;;;;36.10;15.60;;;9.00;84.10;;;;;;9177944;19;20380;-66
2024/03/13 04:03:58;;;;;;;41.28;15.13;;;9.00;84.10;;;;;;9177637;19;20119;-65
2024/03/13 04:07:06;;;;;;;39.35;16.27;;;9.00;84.20;;;;;;9177927;19;20025;-64
2024/03/13 04:10:13;;;;;;;41.78;16.10;;;9.00;84.20;;;;;;9178117;19;20022;-66
2024/03/13 04:13:23;;;;;;;36.40;16.13;;;9.00;84.10;;;;;;9173092;19;20022;-65
2024/03/13 04:16:31;;;;;;;37.92;15.43;;;9.10;84.30;;;;;;9178321;19;20499;-66
2024/03/13 04:19:39;;;;;;;35.40;15.43;;;9.10;84.20;;;;;;9175746;19;20479;-65
2024/03/13 04:22:45;;;;;;;40.15;16.15;;;9.10;84.20;;;;;;9177071;19;20487;-65
2024/03/13 04:25:52;;;;;;;38.83;15.50;;;9.10;84.20;;;;;;9175899;19;20082;-66
2024/03/13 04:29:00;;;;;;;41.58;16.20;;;9.10;84.30;;;;;;9177236;19;20017;-65
2024/03/13 04:32:08;;;;;;;42.03;17.10;;;9.10;84.30;;;;;;9176848;19;20014;-66
2024/03/13 04:35:14;;;;;;;35.75;16.20;;;9.10;84.30;;;;;;9175071;19;20022;-65
2024/03/13 04:38:22;;;;;;;39.20;16.05;;;9.10;84.30;;;;;;9175662;19;20019;-65
2024/03/13 04:41:27;;;;;;;47.78;18.55;;;9.10;84.40;;;;;;9176601;19;20147;-67
2024/03/13 04:44:37;;;;;;;41.72;18.83;;;9.10;84.40;;;;;;9175375;19;20051;-67
2024/03/13 04:47:43;;;;;;;39.45;17.70;;;9.20;84.50;;;;;;9175816;19;20367;-65
2024/03/13 04:50:50;;;;;;;39.33;18.15;;;9.20;85.10;;;;;;9176955;19;20502;-66
2024/03/13 04:53:56;;;;;;;44.53;17.90;;;9.20;84.50;;;;;;9176499;19;20010;-68
2024/03/13 04:57:03;;;;;;;41.92;19.10;;;9.20;84.60;;;;;;9172039;19;20022;-66
2024/03/13 05:00:14;;;;;;;48.65;18.90;;;9.20;84.60;;;;;;9173592;19;20014;-65
2024/03/13 05:03:21;;;;;;;45.95;20.30;;;9.20;84.70;;;;;;9175397;19;20025;-65
2024/03/13 05:06:27;;;;;;;40.85;18.42;;;9.30;84.70;;;;;;9176224;19;20097;-66
2024/03/13 05:09:34;;;;;;;45.00;18.33;;;9.30;84.80;;;;;;9173461;19;20018;-65
2024/03/13 05:12:40;;;;;;;45.00;18.95;;;9.30;84.70;;;;;;9175565;19;20030;-66
2024/03/13 05:15:51;;;;;;;45.13;19.30;;;9.30;84.80;;;;;;9174572;19;20025;-66
2024/03/13 05:18:57;;;;;;;48.35;20.77;;;9.30;84.80;;;;;;9172709;19;20106;-65
2024/03/13 05:22:05;;;;;;;52.42;19.52;;;9.30;84.70;;;;;;9174987;19;20475;-65
2024/03/13 05:25:14;;;;;;;43.67;20.10;;;9.40;84.90;;;;;;9172567;19;20390;-65
2024/03/13 05:28:22;;;;;;;50.97;21.33;;;9.40;84.80;;;;;;9174464;19;20364;-66
2024/03/13 05:31:31;;;;;;;46.85;19.80;;;9.30;84.80;;;;;;9173838;19;20017;-66
2024/03/13 05:34:39;;;;;;;44.10;19.30;;;9.40;84.90;;;;;;9173765;19;20022;-66
2024/03/13 05:37:45;;;;;;;51.47;20.38;;;9.40;84.90;;;;;;9172039;19;20034;-66
2024/03/13 05:40:53;;;;;;;53.20;21.08;;;9.40;84.90;;;;;;9173274;19;20018;-65
2024/03/13 05:43:59;;;;;;;49.22;21.55;;;9.40;84.90;;;;;;9174946;19;20011;-65
2024/03/13 05:47:10;;;;;;;49.90;21.15;;;9.50;85.00;;;;;;9173482;19;20495;-66
2024/03/13 05:50:17;;;;;;;49.72;20.25;;;9.50;85.10;;;;;;9172641;19;20015;-66
2024/03/13 05:53:25;;;;;;;51.95;20.88;;;9.40;85.00;;;;;;9173529;19;20034;-66
2024/03/13 05:56:30;;;;;;;45.50;19.88;;;9.50;85.10;;;;;;9169647;19;20019;-65
2024/03/13 05:59:38;;;;;;;42.97;20.55;;;9.50;85.10;;;;;;9170417;19;20015;-66
2024/03/13 06:02:46;;;;;;;44.67;19.80;;;9.50;85.20;;;;;;9174054;19;20522;-66
2024/03/13 06:05:53;;;;;;;52.28;20.80;;;9.50;85.10;;;;;;9169521;19;20456;-66
2024/03/13 06:08:59;;;;;;;46.55;20.38;;;9.50;85.20;;;;;;9171869;19;20034;-66
2024/03/13 06:12:07;;;;;;;43.22;20.15;;;9.50;85.10;;;;;;9172698;19;20487;-66
2024/03/13 06:15:33;;;;;;;47.13;19.98;;;9.60;85.20;;;;;;9171855;19;20439;-65
2024/03/13 06:18:43;;;;;;;48.05;20.60;;;9.60;85.20;;;;;;9171260;19;20011;-65
2024/03/13 06:21:49;;;;;;;48.67;19.73;;;9.60;85.30;;;;;;9171943;19;20015;-64
2024/03/13 06:25:00;;;;;;;39.78;18.23;;;9.60;85.30;;;;;;9171252;19;20021;-64
2024/03/13 06:29:55;;;;;;;39.78;17.83;;;9.60;85.30;;;;;;9171406;19;20018;-65
2024/03/13 06:31:33;;;;;;;38.22;17.95;;;9.60;85.30;;;;;;9171180;19;20030;-65
2024/03/13 06:34:41;;;;;;;36.53;17.38;;;9.70;85.30;;;;;;9173396;19;20364;-65
2024/03/13 06:37:49;;;;;;;40.90;18.10;;;9.70;85.40;;;;;;9176929;19;20026;-64
2024/03/13 06:40:56;;;;;;;36.50;18.05;;;9.70;85.40;;;;;;9177954;19;20014;-65
2024/03/13 06:44:05;;;;;;;35.90;16.95;;;9.70;85.40;;;;;;9181673;19;20021;-64
2024/03/13 06:47:11;;;;;;;38.28;16.73;;;9.80;85.50;;;;;;9181752;19;20019;-64
2024/03/13 06:50:21;;;;;;;35.00;17.27;;;9.70;85.40;;;;;;9181607;19;20022;-65
2024/03/13 06:53:27;;;;;;;38.85;19.83;;;9.80;85.50;;;;;;9179661;19;20467;-65
2024/03/13 06:56:34;;;;;;;35.83;18.13;;;9.80;85.50;;;;;;9176881;19;20484;-65
2024/03/13 06:59:41;;;;;;;32.58;15.77;;;9.80;85.60;;;;;;9179745;19;20089;-66
2024/03/13 07:02:50;;;;;;;31.42;16.30;;;9.80;85.60;;;;;;9180078;19;20015;-66
2024/03/13 07:05:58;;;;;;;34.25;15.95;;;9.90;85.70;;;;;;9179856;19;20014;-65
2024/03/13 07:09:06;;;;;;;30.52;16.15;;;9.90;85.80;;;;;;9177188;19;20015;-65
2024/03/13 07:12:13;;;;;;;26.33;14.73;;;9.90;85.80;;;;;;9180714;19;20014;-65
2024/03/13 07:15:21;;;;;;;30.08;15.30;;;10.00;85.80;;;;;;9179030;19;20015;-65
2024/03/13 07:18:26;;;;;;;31.40;14.63;;;10.00;85.80;;;;;;9180047;19;20014;-65
2024/03/13 07:21:37;;;;;;;27.38;13.75;;;10.00;85.90;;;;;;9176234;19;20030;-66
2024/03/13 07:24:45;;;;;;;28.70;14.40;;;10.10;86.00;;;;;;9179605;19;20010;-66
2024/03/13 07:27:53;;;;;;;25.13;12.98;;;10.10;86.00;;;;;;9178949;19;20384;-66
2024/03/13 07:30:58;;;;;;;30.90;13.77;;;10.10;86.00;;;;;;9177774;19;20025;-66
2024/03/13 07:34:07;;;;;;;28.33;13.00;;;10.10;86.00;;;;;;9180224;19;20022;-66
2024/03/13 07:37:15;;;;;;;30.00;13.48;;;10.20;86.10;;;;;;9178558;19;20011;-65
2024/03/13 07:40:24;;;;;;;26.83;13.27;;;10.20;86.20;;;;;;9177293;19;20029;-65
2024/03/13 07:43:30;;;;;;;29.73;13.30;;;10.30;86.30;;;;;;9178690;19;20014;-67
2024/03/13 07:46:38;;;;;;;31.05;12.82;;;10.30;86.20;;;;;;9179093;19;20352;-65
2024/03/13 07:49:45;;;;;;;27.30;12.88;;;10.30;86.30;;;;;;9176980;19;20081;-65
2024/03/13 07:52:55;;;;;;;32.17;13.57;;;10.40;86.40;;;;;;9178349;19;20018;-64
2024/03/13 07:56:01;;;;;;;27.17;12.32;;;10.40;86.40;;;;;;9177138;19;20022;-66
2024/03/13 07:59:10;;;;;;;27.65;13.02;;;10.50;86.50;;;;;;9175299;19;20026;-65
2024/03/13 08:02:16;;;;;;;29.35;13.73;;;10.50;88.90;;;;;;9178490;19;20090;-66
2024/03/13 08:05:24;;;;;;;26.48;12.07;;;10.60;87.60;;;;;;9177159;19;20026;-66
2024/03/13 08:08:32;;;;;;;31.40;13.35;;;10.80;91.00;;;;;;9177888;19;20014;-66
2024/03/13 08:11:54;;;;;;;25.98;12.98;;;10.60;86.70;;;;;;9174386;19;20015;-67
2024/03/13 08:15:13;;;;;;;27.98;12.98;;;10.70;87.30;;;;;;9177563;19;20019;-65
2024/03/13 08:18:35;;;;;;;31.60;12.98;;;10.70;86.70;;;;;;9178259;19;20019;-65
2024/03/13 08:21:55;;;;;;;30.50;13.90;;;10.70;86.80;;;;;;9173333;19;20018;-67
2024/03/13 08:25:19;;;;;;;29.00;13.57;;;10.90;88.50;;;;;;9177401;19;20782;-67
2024/03/13 08:28:40;;;;;;;28.30;13.48;;;10.80;86.80;;;;;;9176633;19;20455;-67
2024/03/13 08:32:01;;;;;;;27.25;12.85;;;10.90;86.80;;;;;;9177591;19;20022;-66
2024/03/13 08:35:21;;;;;;;26.38;12.68;;;10.90;86.90;;;;;;9173976;19;20022;-66
2024/03/13 08:38:43;;;;;;;26.85;12.70;;;10.90;86.80;;;;;;9172111;19;20387;-66
2024/03/13 08:42:06;;;;;;;26.73;12.85;;;11.00;86.90;;;;;;9174867;19;20014;-67
2024/03/13 08:45:28;;;;;;;23.55;11.82;;;11.00;87.00;;;;;;9176334;19;20019;-67
2024/03/13 08:48:47;;;;;;;32.95;12.57;;;11.10;87.00;;;;;;9176620;19;20025;-67
2024/03/13 08:52:08;;;;;;;34.80;13.10;;;11.10;87.10;;;;;;9176590;19;20025;-66
2024/03/13 08:55:28;;;;;;;28.13;12.73;;;11.20;87.10;;;;;;9176483;19;20010;-66
2024/03/13 08:58:52;;;;;;;29.77;12.55;;;11.20;87.20;;;;;;9171235;19;20018;-67
2024/03/13 09:02:11;;;;;;;27.80;12.32;;;11.30;87.30;;;;;;9172210;19;20229;-67
2024/03/13 09:05:35;;;;;;;25.25;12.63;;;11.30;87.20;;;;;;9175391;19;20337;-66
2024/03/13 09:08:54;;;;;;;33.33;13.77;;;11.40;87.30;;;;;;9173472;19;20018;-66
2024/03/13 09:12:02;;;;;;;32.97;13.38;;;11.40;87.30;;;;;;9172285;19;20022;-65
2024/03/13 09:15:11;;;;;;;32.15;13.35;;;11.40;87.30;;;;;;9175825;19;20027;-66
2024/03/13 09:18:19;;;;;;;34.90;13.63;;;11.50;87.50;;;;;;9174937;19;20070;-66
2024/03/13 09:21:24;;;;;;;30.23;12.57;;;11.50;87.40;;;;;;9173389;19;20467;-67
2024/03/13 09:24:32;;;;;;;28.17;13.65;;;11.60;87.50;;;;;;9173272;19;20856;-66
2024/03/13 09:27:38;;;;;;;38.13;12.70;;;11.60;87.50;;;;;;9175431;19;20021;-67
2024/03/13 09:30:48;;;;;;;26.83;12.48;;;11.70;87.60;;;;;;9175318;19;20042;-66
2024/03/13 09:33:53;;;;;;;24.58;11.68;;;11.70;87.70;;;;;;9174060;19;20411;-65
2024/03/13 09:37:04;;;;;;;26.90;11.15;;;11.70;87.60;;;;;;9173964;19;20019;-65
2024/03/13 09:40:16;;;;;;;27.17;10.90;;;11.80;87.70;;;;;;9174411;19;20022;-67
2024/03/13 09:43:29;;;;;;;22.95;10.27;;;11.90;87.80;;;;;;9174077;19;20021;-65
2024/03/13 09:46:39;;;;;;;25.25;10.15;;;11.90;87.80;;;;;;9174492;19;20042;-65
2024/03/13 09:49:47;;;;;;;21.50;10.02;;;11.90;87.80;;;;;;9172439;19;20483;-67
2024/03/13 09:52:54;;;;;;;23.00;9.73;;;12.00;87.80;;;;;;9173986;19;20021;-67
2024/03/13 09:56:03;;;;;;;23.67;8.50;;;12.00;87.80;;;;;;9174133;19;20015;-68
2024/03/13 09:59:10;;;;;;;21.08;9.05;;;12.10;87.90;;;;;;9170677;19;20017;-65
2024/03/13 10:02:21;;;;;;;20.88;8.40;;;12.10;87.90;;;;;;9173009;19;20106;-67
2024/03/13 10:05:30;;;;;;;14.73;7.75;;;12.10;88.00;;;;;;9173848;19;20415;-67
2024/03/13 10:08:40;;;;;;;17.10;8.05;;;12.20;88.00;;;;;;9175006;19;20015;-65
2024/03/13 10:11:49;;;;;;;13.82;7.82;;;12.20;88.00;;;;;;9176975;19;20007;-65
2024/03/13 10:14:58;;;;;;;13.25;6.97;;;12.30;88.10;;;;;;9183049;19;20014;-65
2024/03/13 10:18:16;;;;;;;11.35;6.22;;;12.30;88.10;;;;;;9181967;19;20011;-65
2024/03/13 10:21:28;;;;;;;13.60;6.28;;;12.40;88.20;;;;;;9178313;19;20022;-67
2024/03/13 10:24:36;;;;;;;16.92;6.63;;;12.40;88.10;;;;;;9181553;19;20192;-67
2024/03/13 10:27:44;;;;;;;12.63;6.38;;;12.40;88.00;;;;;;9180219;19;20348;-66
2024/03/13 10:30:51;;;;;;;15.65;6.82;;;12.50;88.10;;;;;;9180408;19;20928;-67
2024/03/13 10:34:02;;;;;;;13.57;6.47;;;12.50;88.20;;;;;;9179571;19;20019;-67
2024/03/13 10:37:12;;;;;;;16.40;6.60;;;12.50;88.20;;;;;;9180033;19;20017;-67
2024/03/13 10:40:24;;;;;;;;;;;12.60;88.30;;;;;;9178736;19;20019;-67
2024/03/13 10:43:31;;;;;;;14.15;7.63;;;12.60;88.10;;;;;;9179025;19;19927;-67
2024/03/13 10:46:41;;;;;;;16.95;7.82;;;12.60;88.00;;;;;;9176018;19;20022;-69
2024/03/13 10:49:50;;;;;;;13.80;7.53;;;12.60;88.10;;;;;;9181199;19;20271;-66
2024/03/13 10:52:57;;;;;;;15.98;7.65;;;12.70;88.30;;;;;;9181739;19;20018;-67
2024/03/13 10:56:15;;;;;;;14.13;8.25;;;12.70;88.30;;;;;;9179270;19;20038;-66
2024/03/13 10:59:25;;;;;;;18.67;8.85;;;12.80;88.40;;;;;;9177638;19;20434;-68
2024/03/13 11:02:32;;;;;;;22.83;9.45;;;12.80;88.20;;;;;;9176768;19;20026;-69
2024/03/13 11:05:43;;;;;;;16.83;9.30;;;12.90;88.30;;;;;;9179015;19;20015;-66
2024/03/13 11:08:48;;;;;;;23.13;9.05;;;12.90;88.30;;;;;;9178774;19;20024;-66
2024/03/13 11:11:56;;;;;;;18.00;8.90;;;12.90;88.10;;;;;;9181151;19;20025;-67
2024/03/13 11:15:08;;;;;;;21.85;8.70;;;13.00;88.20;;;;;;9181020;19;20019;-66
2024/03/13 11:18:16;;;;;;;16.67;8.65;;;13.00;88.20;;;;;;9181021;19;20661;-66
2024/03/13 11:21:33;;;;;;;16.33;8.95;;;13.00;88.10;;;;;;9180269;19;20860;-66
2024/03/13 11:24:41;;;;;;;13.70;7.97;;;13.00;88.10;;;;;;9171045;19;20010;-67
2024/03/13 11:27:56;;;;;;;13.23;8.32;;;13.00;88.10;;;;;;9180072;19;20010;-67
2024/03/13 11:31:05;;;;;;;18.40;9.05;;;13.00;88.10;;;;;;9179765;19;20026;-67
2024/03/13 11:34:11;;;;;;;17.40;8.68;;;13.10;88.10;;;;;;9179807;19;20580;-67
2024/03/13 11:37:23;;;;;;;16.25;8.07;;;13.10;88.10;;;;;;9176684;19;20372;-68
2024/03/13 11:40:33;;;;;;;15.93;8.68;;;13.10;88.20;;;;;;9178867;19;20014;-68
2024/03/13 11:43:41;;;;;;;15.25;7.93;;;13.10;88.10;;;;;;9175933;19;20333;-68
2024/03/13 11:46:48;;;;;;;13.90;7.47;;;13.10;88.10;;;;;;9178650;19;20014;-69
2024/03/13 11:49:59;;;;;;;15.35;7.43;;;13.10;88.10;;;;;;9176936;19;20486;-68
2024/03/13 11:53:09;;;;;;;15.90;7.15;;;13.30;93.50;;;;;;9179067;19;20043;-68
2024/03/13 11:56:24;;;;;;;11.13;7.07;;;13.20;88.50;;;;;;9171892;19;20017;-68
2024/03/13 11:59:43;;;;;;;12.18;7.00;;;13.20;93.40;;;;;;9172910;19;20110;-68
2024/03/13 12:02:51;;;;;;;15.65;8.80;;;13.20;88.10;;;;;;9171373;19;20014;-67
2024/03/13 12:05:59;;;;;;;13.80;6.88;;;13.10;88.00;;;;;;9171916;19;20051;-67
2024/03/13 12:09:18;;;;;;;14.77;7.20;;;13.20;88.00;;;;;;9170989;19;20021;-67
2024/03/13 12:12:25;;;;;;;14.98;7.82;;;13.20;88.00;;;;;;9173551;19;20025;-67
2024/03/13 12:15:33;;;;;;;18.35;7.97;;;13.20;88.00;;;;;;9176700;19;20011;-68
2024/03/13 12:18:38;;;;;;;17.13;7.93;;;13.20;88.00;;;;;;9177799;19;20785;-66
2024/03/13 12:21:46;;;;;;;20.85;8.68;;;13.20;87.90;;;;;;9177510;19;20025;-67
2024/03/13 12:24:55;;;;;;;22.88;8.23;;;13.20;88.00;;;;;;9177617;19;20408;-67
2024/03/13 12:28:03;;;;;;;16.27;7.68;;;13.20;88.70;;;;;;9177794;19;20029;-68
2024/03/13 12:31:10;;;;;;;18.10;8.23;;;13.40;91.20;;;;;;9176871;19;20022;-67
2024/03/13 12:34:19;;;;;;;16.25;7.13;;;13.30;91.20;;;;;;9173049;19;20011;-66
2024/03/13 12:37:26;;;;;;;16.10;8.50;;;13.20;88.00;;;;;;9175217;19;20031;-69
2024/03/13 12:40:37;;;;;;;16.75;7.80;;;13.20;88.10;;;;;;9176692;19;20025;-68
2024/03/13 12:43:43;;;;;;;18.30;9.25;;;12.00;90.40;;;;;;9174978;19;20014;-68
2024/03/13 12:46:52;;;;;;;20.13;10.27;;;13.30;88.00;;;;;;9176476;19;20494;-66
2024/03/13 12:49:58;;;;;;;16.67;8.27;;;13.30;88.00;;;;;;9176053;19;20010;-66
2024/03/13 12:53:06;;;;;;;26.63;10.05;;;13.50;91.40;;;;;;9176975;19;20018;-67
2024/03/13 12:56:16;;;;;;;23.48;10.25;;;13.50;91.90;;;;;;9171439;19;20043;-69
2024/03/13 12:59:24;;;;;;;19.63;10.02;;;13.40;88.50;;;;;;9176671;19;20014;-68
2024/03/13 13:02:30;;;;;;;19.58;10.32;;;13.40;89.20;;;;;;9176619;19;20349;-67
2024/03/13 13:05:39;;;;;;;21.73;10.70;;;13.40;87.70;;;;;;9175530;19;20042;-66
2024/03/13 13:08:48;;;;;;;25.88;10.55;;;13.30;87.60;;;;;;9175257;19;20022;-68
2024/03/13 13:11:59;;;;;;;20.90;10.93;;;13.40;87.60;;;;;;9174690;19;20029;-67
2024/03/13 13:15:05;;;;;;;20.92;10.10;;;13.40;87.60;;;;;;9174381;19;21118;-67
2024/03/13 13:18:13;;;;;;;19.20;10.77;;;13.40;88.10;;;;;;9173239;19;20015;-66
2024/03/13 13:21:19;;;;;;;20.90;9.82;;;13.40;87.50;;;;;;9173824;19;20014;-67
2024/03/13 13:24:27;;;;;;;22.50;9.88;;;13.30;87.40;;;;;;9170999;19;20018;-68
2024/03/13 13:27:35;;;;;;;17.55;9.35;;;13.40;87.50;;;;;;9175503;19;20081;-66
2024/03/13 13:30:46;;;;;;;13.07;6.95;;;13.30;87.40;;;;;;9175076;19;20444;-67
2024/03/13 13:33:52;;;;;;;15.55;6.45;;;13.30;87.40;;;;;;9171566;19;20025;-66
2024/03/13 13:36:59;;;;;;;16.05;5.88;;;13.30;87.40;;;;;;9171013;19;20015;-68
2024/03/13 13:40:12;;;;;;;10.07;4.90;;;13.30;87.40;;;;;;9172033;19;20019;-67
2024/03/13 13:43:24;;;;;;;11.35;5.45;;;13.30;87.30;;;;;;9171570;19;20017;-67
2024/03/13 13:46:34;;;;;;;14.93;4.90;;;13.30;87.40;;;;;;9176712;19;20022;-67
2024/03/13 13:49:43;;;;;;;15.02;4.70;;;13.30;87.20;;;;;;9180429;19;20017;-67
2024/03/13 13:52:49;;;;;;;18.48;5.20;;;13.30;87.20;;;;;;9180460;19;20018;-67
2024/03/13 13:55:56;;;;;;;18.73;4.63;;;13.30;87.10;;;;;;9178707;19;20025;-67
2024/03/13 13:59:05;;;;;;;14.85;5.53;;;13.30;87.00;;;;;;9174440;19;20023;-67
2024/03/13 14:02:13;;;;;;;14.95;4.78;;;13.30;87.00;;;;;;9179826;19;20018;-67
2024/03/13 14:05:20;;;;;;;11.43;5.18;;;13.30;86.90;;;;;;9176847;19;20029;-66
2024/03/13 14:08:28;;;;;;;12.05;5.40;;;13.40;86.90;;;;;;9180103;19;20010;-66
2024/03/13 14:11:33;;;;;;;21.38;7.53;;;13.40;86.90;;;;;;9180226;19;20011;-66
2024/03/13 14:14:44;;;;;;;9.77;4.78;;;13.40;86.80;;;;;;9179250;19;20015;-66
2024/03/13 14:17:50;;;;;;;11.35;6.25;;;13.40;86.80;;;;;;9179334;19;20022;-66
2024/03/13 14:20:59;;;;;;;12.35;5.38;;;13.40;86.70;;;;;;9179348;19;20472;-66
2024/03/13 14:24:06;;;;;;;11.32;6.47;;;13.40;86.70;;;;;;9177977;19;20351;-66
2024/03/13 14:27:14;;;;;;;13.93;5.93;;;13.40;86.60;;;;;;9180205;19;20006;-66
2024/03/13 14:30:22;;;;;;;15.98;7.05;;;13.40;86.60;;;;;;9176966;19;20014;-66
2024/03/13 14:33:32;;;;;;;15.00;8.25;;;13.40;86.60;;;;;;9179029;19;20012;-66
2024/03/13 14:36:38;;;;;;;16.15;8.85;;;13.40;86.60;;;;;;9177479;19;20030;-67
2024/03/13 14:39:45;;;;;;;16.02;9.15;;;13.40;86.50;;;;;;9179277;19;20014;-66
2024/03/13 14:42:51;;;;;;;20.48;8.75;;;13.40;86.40;;;;;;9176834;19;20022;-66
2024/03/13 14:46:01;;;;;;;18.98;10.40;;;13.40;86.40;;;;;;9177978;19;20022;-67
2024/03/13 14:49:08;;;;;;;18.67;10.55;;;13.40;87.00;;;;;;9178296;19;20055;-66
2024/03/13 14:52:16;;;;;;;21.23;10.48;;;13.40;86.30;;;;;;9178487;19;20011;-66
2024/03/13 14:55:21;;;;;;;23.88;10.57;;;13.40;86.30;;;;;;9178578;19;20516;-66
2024/03/13 14:58:29;;;;;;;17.40;9.43;;;13.40;86.40;;;;;;9170382;19;20014;-66
2024/03/13 15:01:37;;;;;;;20.35;9.52;;;13.40;86.30;;;;;;9178389;19;20048;-66
2024/03/13 15:04:45;;;;;;;17.95;9.88;;;13.40;86.20;;;;;;9177732;19;20018;-66
2024/03/13 15:07:52;;;;;;;21.17;10.10;;;13.40;86.70;;;;;;9181174;19;20029;-66
2024/03/13 15:10:59;;;;;;;19.42;10.23;;;13.40;86.10;;;;;;9180573;19;20356;-66
2024/03/13 15:14:05;;;;;;;21.63;10.32;;;13.40;86.10;;;;;;9181054;19;20002;-66
2024/03/13 15:17:16;;;;;;;22.38;10.32;;;13.40;86.10;;;;;;9180841;19;20456;-66
2024/03/13 15:20:22;;;;;;;20.27;10.18;;;13.40;86.10;;;;;;9179012;19;20639;-66
2024/03/13 15:23:29;;;;;;;18.90;9.68;;;13.50;86.10;;;;;;9177382;19;20017;-67
2024/03/13 15:26:35;;;;;;;17.23;9.75;;;13.40;85.90;;;;;;9178501;19;20014;-67
2024/03/13 15:29:43;;;;;;;17.75;8.65;;;13.50;86.00;;;;;;9179316;19;20380;-67
2024/03/13 15:32:52;;;;;;;19.88;10.68;;;13.50;85.90;;;;;;9180802;19;20010;-67
2024/03/13 15:36:00;;;;;;;17.38;8.57;;;13.50;85.80;;;;;;9179168;19;20019;-66
2024/03/13 15:39:07;;;;;;;16.30;8.85;;;13.50;85.80;;;;;;9175191;19;20094;-67
2024/03/13 15:42:18;;;;;;;14.68;8.35;;;13.50;85.70;;;;;;9179193;19;20007;-66
2024/03/13 15:45:23;;;;;;;17.90;8.23;;;13.50;85.60;;;;;;9176994;19;20025;-66
2024/03/13 15:48:34;;;;;;;16.65;8.73;;;13.60;85.60;;;;;;9177364;19;20021;-66
2024/03/13 15:51:41;;;;;;;19.17;8.70;;;13.50;85.50;;;;;;9177036;19;20014;-66
2024/03/13 15:54:48;;;;;;;15.65;9.25;;;13.60;85.50;;;;;;9176818;19;20014;-67
2024/03/13 15:57:54;;;;;;;20.23;9.82;;;13.60;85.50;;;;;;9173284;19;20025;-66
2024/03/13 16:01:01;;;;;;;20.90;9.88;;;13.60;85.40;;;;;;9179733;19;20022;-66
2024/03/13 16:04:10;;;;;;;24.75;10.20;;;13.60;85.30;;;;;;9177896;19;20026;-66
2024/03/13 16:07:19;;;;;;;20.33;9.05;;;13.60;85.90;;;;;;9178310;19;20034;-66
2024/03/13 16:10:24;;;;;;;20.60;8.45;;;13.60;85.30;;;;;;9177730;19;20017;-66
2024/03/13 16:13:32;;;;;;;19.73;9.05;;;13.60;85.30;;;;;;9175571;19;20106;-66
2024/03/13 16:16:37;;;;;;;16.90;9.15;;;13.60;85.30;;;;;;9176364;19;20064;-67
2024/03/13 16:19:47;;;;;;;17.70;9.02;;;13.60;85.30;;;;;;9176096;19;20022;-66
2024/03/13 16:22:53;;;;;;;19.98;9.52;;;13.50;85.20;;;;;;9172749;19;20025;-66
2024/03/13 16:26:00;;;;;;;17.00;9.55;;;13.50;85.20;;;;;;9172966;19;20015;-66
2024/03/13 16:29:06;;;;;;;22.90;9.48;;;13.50;85.20;;;;;;9174871;19;20023;-66